Weather at Sancti Spiritus Airport

Public forecast

Using degrees Celsius for public forecast. Weather courtesy of forecast.io.

Closest aviation weather report (METAR) to Sancti Spiritus Airport

Closest report is Abel Santamaria Airport, 41.9 nm (77.6 km) NW. Retrieved 2021/06/23 00:50 UTC (55 minutes ago):

MUSC 230050Z VRB02KT 8000 VCTS SCT020CB BKN050 25/22 Q1020

Closest aviation forecast (TAF) to Sancti Spiritus Airport

Forecast is more than 12 hours old.

Closest forecast is Abel Santamaria Airport, 41.9 nm (77.6 km) NW. Retrieved 2021/01/30 18:00 UTC (5 months ago):

TAF MUSC 301700Z 3018/3118 10015KT 9000 SCT030 BECMG 3101/3103 VRB03KT BECMG 3115/3117 13010KT